createdAt,value
2022-11-13T02:34:30.556Z,12.52
2022-11-13T02:37:00.573Z,12.61
2022-11-13T02:39:30.612Z,12.74
2022-11-13T02:42:00.666Z,12.71
2022-11-13T02:44:30.739Z,12.60
2022-11-13T02:47:00.775Z,12.72
2022-11-13T02:49:33.388Z,12.86
2022-11-13T02:52:03.428Z,13.02
2022-11-13T02:54:33.439Z,12.82
2022-11-13T02:57:03.487Z,12.84
2022-11-13T02:59:33.477Z,12.98
2022-11-13T03:02:03.537Z,12.98
2022-11-13T03:05:05.139Z,12.98
2022-11-13T03:07:26.360Z,12.85
2022-11-13T03:09:57.060Z,12.95
2022-11-13T03:12:27.160Z,12.89
2022-11-13T03:14:57.167Z,13.15
2022-11-13T03:17:27.212Z,13.16
2022-11-13T03:19:59.815Z,12.88
2022-11-13T03:22:30.052Z,12.80
2022-11-13T03:25:00.361Z,12.86
2022-11-13T03:27:30.415Z,12.76
2022-11-13T03:30:00.431Z,13.09
2022-11-13T03:32:30.515Z,13.38
2022-11-13T03:35:03.135Z,13.76
2022-11-13T03:37:33.157Z,13.98
2022-11-13T03:40:03.161Z,14.06
2022-11-13T03:42:33.210Z,14.29
2022-11-13T03:45:03.199Z,14.15
2022-11-13T03:47:33.236Z,14.27
2022-11-13T03:50:05.850Z,14.20
2022-11-13T03:52:35.905Z,13.92
2022-11-13T03:55:05.970Z,13.55
2022-11-13T03:57:36.047Z,13.35
2022-11-13T04:00:06.738Z,13.17
2022-11-13T04:02:36.793Z,12.88
2022-11-13T04:05:11.612Z,13.20
2022-11-13T04:07:41.657Z,13.15
2022-11-13T04:10:12.172Z,13.28
2022-11-13T04:12:42.208Z,12.98
2022-11-13T04:15:13.320Z,12.76
2022-11-13T04:17:43.506Z,12.81
2022-11-13T04:20:16.293Z,12.80
2022-11-13T04:22:46.503Z,12.89
2022-11-13T04:25:16.512Z,12.95
2022-11-13T04:27:46.564Z,13.01
2022-11-13T04:30:16.790Z,13.26
2022-11-13T04:32:46.877Z,13.42
2022-11-13T04:35:19.605Z,13.58
2022-11-13T04:37:49.644Z,13.48
2022-11-13T04:40:20.357Z,13.43
2022-11-13T04:42:50.355Z,13.42
2022-11-13T04:45:21.505Z,13.66
2022-11-13T04:47:52.184Z,13.70
2022-11-13T04:50:24.885Z,14.01
2022-11-13T04:52:54.956Z,14.14
2022-11-13T04:55:24.955Z,13.93
2022-11-13T04:57:57.130Z,14.26
2022-11-13T05:00:27.181Z,14.35
2022-11-13T05:02:59.413Z,14.32
2022-11-13T05:05:32.211Z,14.40
2022-11-13T05:08:02.246Z,14.52
2022-11-13T05:10:32.321Z,14.55
2022-11-13T05:13:02.566Z,14.49
2022-11-13T05:15:32.537Z,14.51
2022-11-13T05:18:02.563Z,14.64
2022-11-13T05:20:35.242Z,14.73
2022-11-13T05:23:05.299Z,14.79
2022-11-13T05:25:35.349Z,14.93
2022-11-13T05:28:05.392Z,14.91
2022-11-13T05:30:35.436Z,14.86
2022-11-13T05:33:05.562Z,14.82
2022-11-13T05:35:38.250Z,14.89
2022-11-13T05:38:08.373Z,14.90
2022-11-13T05:40:38.375Z,15.03
2022-11-13T05:43:08.423Z,14.84
2022-11-13T05:45:38.429Z,15.06
2022-11-13T05:48:09.008Z,15.21
2022-11-13T05:50:41.622Z,14.91
2022-11-13T05:53:11.689Z,14.95
2022-11-13T05:55:41.715Z,15.12
2022-11-13T05:58:11.999Z,15.20
2022-11-13T06:00:42.097Z,15.15
2022-11-13T06:03:12.135Z,15.25
2022-11-13T06:05:44.761Z,15.13
2022-11-13T06:08:14.816Z,15.11
2022-11-13T06:10:45.066Z,15.15
2022-11-13T06:13:15.128Z,15.51
2022-11-13T06:15:45.249Z,15.44
2022-11-13T06:18:15.364Z,15.31
2022-11-13T06:20:47.985Z,15.21
2022-11-13T06:23:18.042Z,14.93
2022-11-13T06:25:48.141Z,14.97
2022-11-13T06:28:18.181Z,15.14
2022-11-13T06:30:48.192Z,15.16
2022-11-13T06:33:18.245Z,15.25
2022-11-13T06:35:50.907Z,15.45
2022-11-13T06:38:20.959Z,15.44
2022-11-13T06:40:50.977Z,15.44
2022-11-13T06:43:21.045Z,15.43
2022-11-13T06:45:51.068Z,15.64
2022-11-13T06:48:21.081Z,15.71
2022-11-13T06:50:54.179Z,15.89
2022-11-13T06:53:24.203Z,15.97
2022-11-13T06:55:54.370Z,16.13
2022-11-13T06:58:24.424Z,16.20
2022-11-13T07:00:54.621Z,16.06
2022-11-13T07:03:27.390Z,16.21
2022-11-13T07:06:00.005Z,16.07
2022-11-13T07:08:30.360Z,16.24
2022-11-13T07:11:01.281Z,16.19
2022-11-13T07:13:31.840Z,16.39
2022-11-13T07:16:15.863Z,16.25
2022-11-13T07:18:47.580Z,16.33
2022-11-13T07:21:20.430Z,16.30
2022-11-13T07:23:51.585Z,16.18
2022-11-13T07:26:22.027Z,15.97
2022-11-13T07:28:52.985Z,15.83
2022-11-13T07:31:23.026Z,15.88
2022-11-13T07:33:54.151Z,15.86
2022-11-13T07:36:26.821Z,16.10
2022-11-13T07:39:00.198Z,16.21
2022-11-13T07:41:30.544Z,16.43
2022-11-13T07:44:01.896Z,16.54
2022-11-13T07:46:32.609Z,16.63
2022-11-13T07:49:02.634Z,16.56
2022-11-13T07:51:35.269Z,16.71
2022-11-13T07:54:05.301Z,16.73
2022-11-13T07:56:35.337Z,16.87
2022-11-13T07:59:05.359Z,16.95
2022-11-13T08:01:35.464Z,16.49
2022-11-13T08:04:05.521Z,16.12
2022-11-13T08:06:39.859Z,16.08
2022-11-13T08:09:09.928Z,16.48
2022-11-13T08:11:39.959Z,16.84
2022-11-13T08:14:10.012Z,17.03
2022-11-13T08:16:40.080Z,16.92
2022-11-13T08:19:10.148Z,17.00
2022-11-13T08:21:42.784Z,16.96
2022-11-13T08:24:13.141Z,17.15
2022-11-13T08:26:43.384Z,17.29
2022-11-13T08:29:13.401Z,17.14
2022-11-13T08:31:43.376Z,17.16
2022-11-13T08:34:13.429Z,17.12
2022-11-13T08:36:46.065Z,17.13
2022-11-13T08:39:16.368Z,17.15
2022-11-13T08:41:46.373Z,17.27
2022-11-13T08:44:16.501Z,17.20
2022-11-13T08:46:46.551Z,17.32
2022-11-13T08:49:16.612Z,17.25
2022-11-13T08:51:49.255Z,17.46
2022-11-13T08:54:21.003Z,17.57
2022-11-13T08:56:56.002Z,17.52
2022-11-13T08:59:27.417Z,17.58
2022-11-13T09:01:59.630Z,17.60
2022-11-13T09:04:29.892Z,17.60
2022-11-13T09:07:02.611Z,17.73
2022-11-13T09:09:34.621Z,17.58
2022-11-13T09:12:04.636Z,17.64
2022-11-13T09:14:34.718Z,17.60
2022-11-13T09:17:04.715Z,17.69
2022-11-13T09:19:34.720Z,17.75
2022-11-13T09:22:07.419Z,18.05
2022-11-13T09:24:37.462Z,18.09
2022-11-13T09:27:07.535Z,18.21
2022-11-13T09:29:37.559Z,18.17
2022-11-13T09:32:08.084Z,18.40
2022-11-13T09:34:38.373Z,18.46
2022-11-13T09:37:10.986Z,18.31
2022-11-13T09:39:41.037Z,17.88
2022-11-13T09:42:17.573Z,18.15
2022-11-13T09:44:51.956Z,18.13
2022-11-13T09:47:26.344Z,18.24
2022-11-13T09:50:01.499Z,18.42
2022-11-13T09:52:38.333Z,18.47
2022-11-13T09:55:09.469Z,18.48
2022-11-13T09:57:47.281Z,18.30
2022-11-13T10:00:21.444Z,18.16
2022-11-13T10:03:04.229Z,18.34
2022-11-13T10:05:43.034Z,18.22
2022-11-13T10:08:19.985Z,18.39
2022-11-13T10:10:58.921Z,18.02
2022-11-13T10:13:32.046Z,18.19
2022-11-13T10:16:07.252Z,18.30
2022-11-13T10:18:41.000Z,18.16
2022-11-13T10:21:20.728Z,18.10
2022-11-13T10:23:59.072Z,18.12
2022-11-13T10:26:31.672Z,18.23
2022-11-13T10:29:05.783Z,18.48
2022-11-13T10:31:47.445Z,18.45
2022-11-13T10:34:18.542Z,18.73
2022-11-13T10:37:03.338Z,18.68
2022-11-13T10:39:44.826Z,18.72
2022-11-13T10:42:25.559Z,18.72
2022-11-13T10:44:57.940Z,18.89
2022-11-13T10:48:02.388Z,19.17
2022-11-13T10:50:25.171Z,19.51
2022-11-13T10:52:57.980Z,19.44
2022-11-13T10:55:41.022Z,19.54
2022-11-13T10:58:16.857Z,19.81
2022-11-13T11:00:49.993Z,19.69
2022-11-13T11:03:23.044Z,20.21
2022-11-13T11:05:57.853Z,20.24
2022-11-13T11:08:32.890Z,20.37
2022-11-13T11:11:22.821Z,20.49
2022-11-13T11:13:52.857Z,20.70
2022-11-13T11:16:27.098Z,20.55
2022-11-13T11:19:00.925Z,20.61
2022-11-13T11:21:37.409Z,20.96
2022-11-13T11:24:14.840Z,20.62
2022-11-13T11:26:53.944Z,20.85
2022-11-13T11:29:31.408Z,20.78
2022-11-13T11:32:06.619Z,20.31
2022-11-13T11:34:42.141Z,20.24
2022-11-13T11:37:17.344Z,19.87
2022-11-13T11:39:53.268Z,19.52
2022-11-13T11:42:33.801Z,19.51
2022-11-13T11:45:14.957Z,19.63
2022-11-13T11:47:45.035Z,19.60
2022-11-13T11:50:17.920Z,19.70
2022-11-13T11:53:02.943Z,19.71
2022-11-13T11:55:49.346Z,19.45
2022-11-13T11:58:34.188Z,19.34
2022-11-13T12:01:08.608Z,19.08
2022-11-13T12:04:09.327Z,18.91
2022-11-13T12:06:51.707Z,19.08
2022-11-13T12:09:30.776Z,18.97
2022-11-13T12:12:16.108Z,18.91
2022-11-13T12:15:01.314Z,18.64
2022-11-13T12:17:51.738Z,18.95
2022-11-13T12:20:30.542Z,18.88
2022-11-13T12:23:11.220Z,18.61
2022-11-13T12:25:47.789Z,18.78
2022-11-13T12:28:23.904Z,18.71
2022-11-13T12:31:10.134Z,18.58
2022-11-13T12:33:48.507Z,18.34
2022-11-13T12:36:19.322Z,18.63
2022-11-13T12:38:57.308Z,18.44
2022-11-13T12:41:45.973Z,18.49
2022-11-13T12:44:26.009Z,18.14
2022-11-13T12:47:00.496Z,18.21
2022-11-13T12:49:33.831Z,17.96
2022-11-13T12:52:05.836Z,18.16
2022-11-13T12:54:37.684Z,18.14
2022-11-13T12:57:24.434Z,18.15
2022-11-13T12:59:57.575Z,18.20
2022-11-13T13:02:43.589Z,18.37
2022-11-13T13:05:24.488Z,18.29
2022-11-13T13:08:24.317Z,18.17
2022-11-13T13:11:07.357Z,18.16
2022-11-13T13:13:43.899Z,18.30
2022-11-13T13:16:15.612Z,18.20
2022-11-13T13:18:48.280Z,18.25
2022-11-13T13:21:20.717Z,18.31
2022-11-13T13:23:52.125Z,18.29
2022-11-13T13:26:25.480Z,18.24
2022-11-13T13:28:58.235Z,18.24
2022-11-13T13:31:41.948Z,18.19
2022-11-13T13:34:33.701Z,18.06
2022-11-13T13:37:13.879Z,18.04
2022-11-13T13:39:54.437Z,17.90
2022-11-13T13:42:40.294Z,17.95
2022-11-13T13:45:25.745Z,18.10
2022-11-13T13:47:59.625Z,17.65
2022-11-13T13:50:37.188Z,17.55
2022-11-13T13:53:07.342Z,17.46
2022-11-13T13:55:39.721Z,17.39
2022-11-13T13:58:14.728Z,17.27
2022-11-13T14:01:11.954Z,17.29
2022-11-13T14:03:35.052Z,17.37
2022-11-13T14:06:25.861Z,17.02
2022-11-13T14:08:55.934Z,17.03
2022-11-13T14:11:29.901Z,16.64
2022-11-13T14:14:10.845Z,16.98
2022-11-13T14:16:50.533Z,16.92
2022-11-13T14:19:21.357Z,17.05
2022-11-13T14:21:56.608Z,17.08
2022-11-13T14:24:29.676Z,17.04
2022-11-13T14:27:00.738Z,17.19
2022-11-13T14:29:38.068Z,17.07
2022-11-13T14:32:12.914Z,17.05
2022-11-13T14:34:47.233Z,17.06
2022-11-13T14:37:32.345Z,17.05
2022-11-13T14:40:05.150Z,17.01
2022-11-13T14:42:39.598Z,17.01
2022-11-13T14:45:18.067Z,17.03
2022-11-13T14:47:59.817Z,17.01
2022-11-13T14:50:32.204Z,16.86
2022-11-13T14:53:06.961Z,16.91
2022-11-13T14:55:40.290Z,17.00
2022-11-13T14:58:14.820Z,16.94
2022-11-13T15:00:44.942Z,16.89
2022-11-13T15:03:15.041Z,16.93
2022-11-13T15:05:45.394Z,16.83
2022-11-13T15:08:18.194Z,16.95
2022-11-13T15:10:48.309Z,16.84
2022-11-13T15:13:20.193Z,16.74
2022-11-13T15:15:50.247Z,16.70
2022-11-13T15:18:22.277Z,16.82
2022-11-13T15:20:52.362Z,16.83
2022-11-13T15:23:29.577Z,16.72
2022-11-13T15:25:59.868Z,16.58
2022-11-13T15:28:29.859Z,16.57
2022-11-13T15:31:00.022Z,16.62
2022-11-13T15:33:30.663Z,16.59
2022-11-13T15:36:00.983Z,16.53
2022-11-13T15:38:33.598Z,16.54
2022-11-13T15:41:03.814Z,16.46
2022-11-13T15:43:33.894Z,16.44
2022-11-13T15:46:04.138Z,16.31
2022-11-13T15:48:34.186Z,16.40
2022-11-13T15:51:04.220Z,16.39
2022-11-13T15:53:36.932Z,16.39
2022-11-13T15:56:07.912Z,16.31
2022-11-13T15:58:37.949Z,16.18
2022-11-13T16:01:09.490Z,16.24
2022-11-13T16:03:40.668Z,16.25
2022-11-13T16:06:14.640Z,16.07
2022-11-13T16:08:47.357Z,16.15
2022-11-13T16:11:18.495Z,16.13
2022-11-13T16:13:49.117Z,16.15
2022-11-13T16:16:23.477Z,16.11
2022-11-13T16:18:58.932Z,16.04
2022-11-13T16:21:30.777Z,15.98
2022-11-13T16:24:03.431Z,15.93
2022-11-13T16:26:33.676Z,15.84
2022-11-13T16:29:13.564Z,15.80
2022-11-13T16:31:44.329Z,15.83
2022-11-13T16:34:14.600Z,15.69
2022-11-13T16:36:44.837Z,15.79
2022-11-13T16:39:19.490Z,15.80
2022-11-13T16:41:49.482Z,15.83
2022-11-13T16:44:19.536Z,15.81
2022-11-13T16:46:49.905Z,15.79
2022-11-13T16:49:20.525Z,15.77
2022-11-13T16:51:51.801Z,15.83
2022-11-13T16:54:24.448Z,15.79
2022-11-13T16:56:54.437Z,15.77
2022-11-13T16:59:24.604Z,15.75
2022-11-13T17:01:57.563Z,15.69
2022-11-13T17:04:27.661Z,15.65
2022-11-13T17:06:58.046Z,15.69
2022-11-13T17:09:30.806Z,15.75
2022-11-13T17:12:00.872Z,15.66
2022-11-13T17:14:30.943Z,15.67
2022-11-13T17:17:00.984Z,15.66
2022-11-13T17:19:32.969Z,15.69
2022-11-13T17:22:03.225Z,15.71
2022-11-13T17:24:36.121Z,15.67
2022-11-13T17:27:06.450Z,15.64
2022-11-13T17:29:36.693Z,15.49
2022-11-13T17:32:06.944Z,15.60
2022-11-13T17:34:36.990Z,15.62
2022-11-13T17:37:07.082Z,15.63
2022-11-13T17:39:39.688Z,15.59
2022-11-13T17:42:09.739Z,15.61
2022-11-13T17:44:39.759Z,15.64
2022-11-13T17:47:09.806Z,15.64
2022-11-13T17:49:39.824Z,15.63
2022-11-13T17:52:09.872Z,15.65
2022-11-13T17:54:42.551Z,15.59
2022-11-13T17:57:13.169Z,15.59
2022-11-13T17:59:43.243Z,15.59
2022-11-13T18:02:14.809Z,15.60
2022-11-13T18:04:44.861Z,15.59
2022-11-13T18:07:14.956Z,15.58
2022-11-13T18:09:47.626Z,15.27
2022-11-13T18:12:17.659Z,14.97
2022-11-13T18:14:52.618Z,14.49
2022-11-13T18:17:22.949Z,14.73
2022-11-13T18:20:01.320Z,15.02
2022-11-13T18:22:32.214Z,15.25
2022-11-13T18:25:05.429Z,15.11
2022-11-13T18:27:35.468Z,14.73
2022-11-13T18:30:05.484Z,14.81
2022-11-13T18:32:35.537Z,15.05
2022-11-13T18:35:05.673Z,14.99
2022-11-13T18:37:35.784Z,14.97
2022-11-13T18:40:09.882Z,15.07
2022-11-13T18:42:39.957Z,15.24
2022-11-13T18:45:11.922Z,15.06
2022-11-13T18:47:41.925Z,14.84
2022-11-13T18:50:12.869Z,14.65
2022-11-13T18:52:42.890Z,14.49
2022-11-13T18:55:15.585Z,14.43
2022-11-13T18:57:45.622Z,14.34
2022-11-13T19:00:16.836Z,14.30
2022-11-13T19:02:46.863Z,14.32
2022-11-13T19:05:17.045Z,14.57
2022-11-13T19:07:47.103Z,14.58
2022-11-13T19:10:20.019Z,14.59
2022-11-13T19:12:50.049Z,14.19
2022-11-13T19:15:20.303Z,14.35
2022-11-13T19:17:52.818Z,14.59
2022-11-13T19:20:23.063Z,14.81
2022-11-13T19:22:53.122Z,14.96
2022-11-13T19:25:25.978Z,14.97
2022-11-13T19:27:56.756Z,15.04
2022-11-13T19:30:27.451Z,14.77
2022-11-13T19:32:57.489Z,15.24
2022-11-13T19:35:29.014Z,15.12
2022-11-13T19:38:02.085Z,15.38
2022-11-13T19:40:34.695Z,15.35
2022-11-13T19:43:04.738Z,14.95
2022-11-13T19:45:34.792Z,15.24
2022-11-13T19:48:04.834Z,15.24
2022-11-13T19:50:35.034Z,15.28
2022-11-13T19:53:05.116Z,15.33
2022-11-13T19:55:37.720Z,15.13
2022-11-13T19:58:07.793Z,14.57
2022-11-13T20:00:38.757Z,14.69
2022-11-13T20:03:08.769Z,14.75
2022-11-13T20:05:43.182Z,14.43
2022-11-13T20:08:14.003Z,14.15
2022-11-13T20:10:46.629Z,14.06
2022-11-13T20:13:16.720Z,14.16
2022-11-13T20:15:46.774Z,14.21
2022-11-13T20:18:17.241Z,14.45
2022-11-13T20:20:53.449Z,14.50
2022-11-13T20:23:24.979Z,14.35
2022-11-13T20:25:59.833Z,14.48
2022-11-13T20:28:31.197Z,14.52
2022-11-13T20:31:10.095Z,14.61
2022-11-13T20:33:40.155Z,14.42
2022-11-13T20:36:11.108Z,14.43
2022-11-13T20:38:41.332Z,14.21
2022-11-13T20:41:15.496Z,14.11
2022-11-13T20:43:45.556Z,13.94
2022-11-13T20:46:17.217Z,14.02
2022-11-13T20:48:47.883Z,14.29
2022-11-13T20:51:20.093Z,14.37
2022-11-13T20:53:50.580Z,14.62
2022-11-13T20:56:25.074Z,14.61
2022-11-13T20:58:55.352Z,14.50
2022-11-13T21:01:27.389Z,14.00
2022-11-13T21:03:59.676Z,14.18
2022-11-13T21:06:29.920Z,14.25
2022-11-13T21:08:59.941Z,13.90
2022-11-13T21:11:32.549Z,14.11
2022-11-13T21:14:02.817Z,13.88
2022-11-13T21:16:33.180Z,13.70
2022-11-13T21:19:03.234Z,13.58
2022-11-13T21:21:33.221Z,13.92
2022-11-13T21:24:03.300Z,13.50
2022-11-13T21:26:35.962Z,13.51
2022-11-13T21:29:06.074Z,13.63
2022-11-13T21:31:36.130Z,13.86
2022-11-13T21:34:06.221Z,13.68
2022-11-13T21:36:36.252Z,13.93
2022-11-13T21:39:06.384Z,13.88
2022-11-13T21:41:39.043Z,14.01
2022-11-13T21:44:11.190Z,14.00
2022-11-13T21:46:45.851Z,13.95
2022-11-13T21:49:16.925Z,13.86
2022-11-13T21:51:46.984Z,13.96
2022-11-13T21:54:17.256Z,14.11
2022-11-13T21:56:49.872Z,14.12
2022-11-13T21:59:19.882Z,14.20
2022-11-13T22:01:50.042Z,14.24
2022-11-13T22:04:20.090Z,14.26
2022-11-13T22:06:50.989Z,14.36
2022-11-13T22:09:23.034Z,14.35
2022-11-13T22:11:55.847Z,14.43
2022-11-13T22:14:25.863Z,14.65
2022-11-13T22:16:56.278Z,14.65
2022-11-13T22:19:29.248Z,14.49
2022-11-13T22:22:01.189Z,14.35
2022-11-13T22:24:31.207Z,14.24
2022-11-13T22:27:03.988Z,14.35
2022-11-13T22:29:33.986Z,14.57
2022-11-13T22:32:04.389Z,14.53
2022-11-13T22:34:34.379Z,14.36
2022-11-13T22:37:04.433Z,14.46
2022-11-13T22:39:34.498Z,14.47
2022-11-13T22:42:07.438Z,14.65
2022-11-13T22:44:54.863Z,14.45
2022-11-13T22:47:25.232Z,14.55
2022-11-13T22:49:55.201Z,14.37
2022-11-13T22:52:25.232Z,14.20
2022-11-13T22:54:55.535Z,14.10
2022-11-13T22:57:28.160Z,14.27
2022-11-13T22:59:58.149Z,14.18
2022-11-13T23:02:28.169Z,14.29
2022-11-13T23:04:58.189Z,14.13
2022-11-13T23:07:28.333Z,14.04
2022-11-13T23:09:58.392Z,14.08
2022-11-13T23:12:31.845Z,14.04
2022-11-13T23:15:01.918Z,14.30
2022-11-13T23:17:31.949Z,13.99
2022-11-13T23:20:02.009Z,14.25
2022-11-13T23:22:32.021Z,14.05
2022-11-13T23:25:02.080Z,14.15
2022-11-13T23:27:34.685Z,14.05
2022-11-13T23:30:05.049Z,13.47
2022-11-13T23:32:35.037Z,13.31
2022-11-13T23:35:05.032Z,13.38
2022-11-13T23:37:35.092Z,13.52
2022-11-13T23:40:05.105Z,13.72
2022-11-13T23:42:54.220Z,13.99
2022-11-13T23:45:25.528Z,13.60
2022-11-13T23:47:55.509Z,13.39
2022-11-13T23:50:25.701Z,13.64
2022-11-13T23:52:55.749Z,13.33
2022-11-13T23:55:26.413Z,13.09
2022-11-13T23:58:03.899Z,13.09
